NCAR-RAP Real-Time Weather Data

Output produced by METARs form (06 May 2021  16:13 UTC)
found at http://weather.rap.ucar.edu/surface/
 
KVLD 061453Z 00000KT 10SM CLR 25/18 A3006 RMK AO2 SLP184 60002 T02500178 50004
KVLD 061353Z 03005KT 10SM CLR 24/18 A3006 RMK AO2 SLP185 T02390178
KVLD 061253Z 02006KT 10SM FEW060 23/18 A3005 RMK AO2 RAB10E24 SLP183 P0002 T02280183
KVLD 061153Z 00000KT 10SM SCT055 OVC080 21/19 A3005 RMK AO2 SLP180 T02110194 10211 20189 53006
KVLD 061053Z 00000KT 8SM OVC075 20/18 A3003 RMK AO2 SLP175 T02000183
KVLD 060953Z AUTO 00000KT 10SM BKN055 OVC075 21/19 A3002 RMK AO2 SLP173 T02060189
KVLD 060853Z AUTO 00000KT 9SM FEW031 OVC060 21/19 A3003 RMK AO2 SLP174 T02060189 55000
KVLD 060753Z AUTO 00000KT 6SM BR BKN055 20/18 A3002 RMK AO2 SLP172 T02000183
KVLD 060653Z AUTO 00000KT 7SM CLR 19/17 A3002 RMK AO2 SLP172 T01890172
KVLD 060553Z AUTO 18003KT 9SM BKN075 19/18 A3003 RMK AO2 SLP175 T01940178 10250 20189 50000
KVLD 060453Z AUTO 00000KT 6SM BR FEW075 19/18 A3003 RMK AO2 SLP176 T01890178 403000183
KVLD 060353Z AUTO 00000KT 9SM CLR 19/18 A3003 RMK AO2 SLP176 T01940178
KVLD 060253Z AUTO 00000KT 10SM CLR 21/19 A3003 RMK AO2 SLP175 T02060189 51011
KVLD 060153Z AUTO 00000KT 10SM CLR 22/20 A3002 RMK AO2 SLP170 T02170200
KVLD 060053Z 00000KT 10SM FEW027 SCT035 23/21 A3001 RMK AO2 SLP170 T02280206